createdAt,value
2023-04-24T00:01:39.515Z,98736.25
2023-04-24T00:04:06.692Z,98731.16
2023-04-24T00:06:34.181Z,98735.84
2023-04-24T00:09:01.427Z,98742.25
2023-04-24T00:11:28.534Z,98736.44
2023-04-24T00:13:55.745Z,98743.56
2023-04-24T00:16:24.369Z,98728.84
2023-04-24T00:18:51.275Z,98722.63
2023-04-24T00:21:18.180Z,98722.88
2023-04-24T00:23:45.283Z,98729.84
2023-04-24T00:26:14.707Z,98733.28
2023-04-24T00:28:41.643Z,98731.84
2023-04-24T00:31:08.569Z,98741.00
2023-04-24T00:33:37.542Z,98736.75
2023-04-24T00:36:04.655Z,98727.38
2023-04-24T00:38:31.482Z,98724.13
2023-04-24T00:41:25.499Z,98724.91
2023-04-24T00:43:53.220Z,98722.06
2023-04-24T00:46:21.607Z,98722.81
2023-04-24T00:48:51.395Z,98730.44
2023-04-24T00:54:16.839Z,98732.25
2023-04-24T00:56:45.419Z,98716.59
2023-04-24T00:59:13.587Z,98713.88
2023-04-24T01:01:41.624Z,98714.03
2023-04-24T01:04:12.600Z,98712.72
2023-04-24T01:06:41.171Z,98716.25
2023-04-24T01:09:11.587Z,98713.19
2023-04-24T01:11:39.268Z,98705.28
2023-04-24T01:14:07.026Z,98708.38
2023-04-24T01:16:34.136Z,98713.69
2023-04-24T01:19:01.801Z,98696.66
2023-04-24T01:21:33.884Z,98699.91
2023-04-24T01:24:03.947Z,98699.13
2023-04-24T01:26:31.447Z,98702.81
2023-04-24T01:28:59.158Z,98697.91
2023-04-24T01:31:27.065Z,98690.25
2023-04-24T01:33:57.165Z,98686.00
2023-04-24T01:36:28.108Z,98690.81
2023-04-24T01:38:55.592Z,98688.94
2023-04-24T01:41:25.940Z,98694.00
2023-04-24T01:43:54.106Z,98689.44
2023-04-24T01:46:21.814Z,98682.44
2023-04-24T01:48:49.216Z,98686.34
2023-04-24T01:51:16.855Z,98689.59
2023-04-24T01:53:43.887Z,98679.59
2023-04-24T01:56:11.088Z,98684.03
2023-04-24T01:58:39.860Z,98686.56
2023-04-24T02:01:43.884Z,98689.53
2023-04-24T02:04:11.279Z,98677.38
2023-04-24T02:06:38.815Z,98675.16
2023-04-24T02:09:06.566Z,98669.09
2023-04-24T02:11:33.564Z,98678.53
2023-04-24T02:14:01.959Z,98670.34
2023-04-24T02:16:30.191Z,98665.22
2023-04-24T02:18:58.319Z,98666.16
2023-04-24T02:21:25.595Z,98659.41
2023-04-24T02:23:52.432Z,98670.06
2023-04-24T02:26:19.347Z,98671.53
2023-04-24T02:28:46.351Z,98679.16
2023-04-24T02:31:15.000Z,98684.31
2023-04-24T02:33:42.160Z,98679.38
2023-04-24T02:36:09.107Z,98694.59
2023-04-24T02:38:36.067Z,98679.38
2023-04-24T02:41:03.421Z,98693.66
2023-04-24T02:43:30.422Z,98686.38
2023-04-24T02:45:58.278Z,98679.84
2023-04-24T02:48:26.810Z,98667.38
2023-04-24T02:50:53.821Z,98679.75
2023-04-24T02:53:21.174Z,98666.66
2023-04-24T02:55:48.055Z,98672.56
2023-04-24T02:58:15.089Z,98677.97
2023-04-24T03:00:42.255Z,98677.22
2023-04-24T03:03:09.458Z,98679.09
2023-04-24T03:05:38.239Z,98683.13
2023-04-24T03:09:00.088Z,98669.09
2023-04-24T03:15:34.490Z,98673.44
2023-04-24T03:18:02.487Z,98669.41
2023-04-24T03:20:29.568Z,98675.31
2023-04-24T03:22:59.090Z,98668.84
2023-04-24T03:25:26.561Z,98660.91
2023-04-24T03:27:53.772Z,98671.31
2023-04-24T03:30:37.932Z,98665.72
2023-04-24T03:33:06.103Z,98669.59
2023-04-24T03:35:36.847Z,98662.38
2023-04-24T03:38:09.684Z,98659.56
2023-04-24T03:40:59.499Z,98665.81
2023-04-24T03:43:40.409Z,98673.03
2023-04-24T03:46:08.018Z,98662.78
2023-04-24T03:48:39.622Z,98670.41
2023-04-24T03:51:08.083Z,98669.41
2023-04-24T03:53:39.080Z,98680.19
2023-04-24T03:56:06.656Z,98691.31
2023-04-24T03:58:34.237Z,98705.28
2023-04-24T04:01:01.399Z,98698.63
2023-04-24T04:03:48.780Z,98709.13
2023-04-24T04:06:20.376Z,98711.66
2023-04-24T04:08:49.129Z,98720.75
2023-04-24T04:11:16.028Z,98727.91
2023-04-24T04:13:43.218Z,98717.00
2023-04-24T04:16:10.485Z,98738.50
2023-04-24T04:18:38.324Z,98744.09
2023-04-24T04:21:07.490Z,98746.91
2023-04-24T04:23:35.145Z,98765.63
2023-04-24T04:26:10.023Z,98769.81
2023-04-24T04:28:50.262Z,98781.69
2023-04-24T04:31:17.341Z,98772.19
2023-04-24T04:33:44.444Z,98762.91
2023-04-24T04:36:12.640Z,98772.09
2023-04-24T04:38:44.526Z,98783.91
2023-04-24T04:41:42.814Z,98789.31
2023-04-24T04:45:01.271Z,98787.47
2023-04-24T04:47:38.535Z,98789.91
2023-04-24T04:50:07.325Z,98798.94
2023-04-24T04:52:34.472Z,98787.28
2023-04-24T04:55:14.334Z,98783.13
2023-04-24T04:58:11.768Z,98800.44
2023-04-24T05:00:40.730Z,98799.09
2023-04-24T05:03:21.199Z,98805.53
2023-04-24T05:05:54.630Z,98813.41
2023-04-24T05:08:27.167Z,98811.63
2023-04-24T05:10:55.953Z,98819.44
2023-04-24T05:13:38.202Z,98822.16
2023-04-24T05:16:11.163Z,98836.59
2023-04-24T05:18:38.680Z,98834.22
2023-04-24T05:21:07.852Z,98837.50
2023-04-24T05:23:35.613Z,98843.88
2023-04-24T05:26:07.410Z,98854.09
2023-04-24T05:28:36.183Z,98859.78
2023-04-24T05:31:07.909Z,98870.00
2023-04-24T05:33:36.067Z,98878.72
2023-04-24T05:36:03.646Z,98876.88
2023-04-24T05:38:30.657Z,98886.06
2023-04-24T05:40:57.568Z,98887.75
2023-04-24T05:43:24.529Z,98889.91
2023-04-24T05:45:52.823Z,98891.50
2023-04-24T05:48:19.792Z,98888.16
2023-04-24T05:50:46.698Z,98887.91
2023-04-24T05:53:13.640Z,98888.16
2023-04-24T05:55:41.394Z,98888.41
2023-04-24T05:58:08.421Z,98894.06
2023-04-24T06:00:36.755Z,98898.22
2023-04-24T06:03:25.898Z,98899.53
2023-04-24T06:05:55.829Z,98897.94
2023-04-24T06:08:23.510Z,98897.94
2023-04-24T06:10:50.757Z,98898.75
2023-04-24T06:13:20.214Z,98892.94
2023-04-24T06:16:07.243Z,98890.09
2023-04-24T06:19:08.799Z,98890.91
2023-04-24T06:21:36.547Z,98891.94
2023-04-24T06:24:04.464Z,98898.41
2023-04-24T06:26:31.938Z,98896.78
2023-04-24T06:28:58.941Z,98886.00
2023-04-24T06:31:25.910Z,98877.25
2023-04-24T06:33:52.825Z,98886.75
2023-04-24T06:36:21.271Z,98891.88
2023-04-24T06:38:48.242Z,98896.66
2023-04-24T06:41:15.035Z,98890.84
2023-04-24T06:43:42.086Z,98897.38
2023-04-24T06:46:09.149Z,98901.75
2023-04-24T06:48:42.575Z,98887.22
2023-04-24T06:51:09.979Z,98897.28
2023-04-24T06:53:51.814Z,98884.31
2023-04-24T06:56:35.870Z,98890.22
2023-04-24T06:59:17.739Z,98893.91
2023-04-24T07:01:45.298Z,98895.53
2023-04-24T07:04:12.347Z,98895.22
2023-04-24T07:06:39.853Z,98900.94
2023-04-24T07:09:08.069Z,98898.69
2023-04-24T07:11:34.934Z,98903.09
2023-04-24T07:14:02.073Z,98915.03
2023-04-24T07:16:29.333Z,98907.00
2023-04-24T07:18:56.358Z,98906.44
2023-04-24T07:21:23.956Z,98907.38
2023-04-24T07:23:51.241Z,98909.00
2023-04-24T07:26:20.077Z,98891.19
2023-04-24T07:28:47.175Z,98909.75
2023-04-24T07:31:40.713Z,98903.03
2023-04-24T07:34:07.597Z,98906.03
2023-04-24T07:36:50.046Z,98918.56
2023-04-24T07:39:19.089Z,98918.94
2023-04-24T07:42:31.284Z,98920.97
2023-04-24T07:44:58.287Z,98924.59
2023-04-24T07:47:43.844Z,98935.78
2023-04-24T07:50:11.493Z,98949.28
2023-04-24T07:53:05.318Z,98938.72
2023-04-24T07:55:36.281Z,98942.09
2023-04-24T07:58:05.252Z,98945.22
2023-04-24T08:00:32.451Z,98956.41
2023-04-24T08:02:59.534Z,98956.81
2023-04-24T08:05:26.758Z,98968.34
2023-04-24T08:07:54.513Z,98977.88
2023-04-24T08:10:25.594Z,98971.56
2023-04-24T08:12:53.172Z,98977.03
2023-04-24T08:15:21.608Z,98977.56
2023-04-24T08:17:48.555Z,98984.41
2023-04-24T08:20:15.772Z,98974.25
2023-04-24T08:22:43.807Z,98981.66
2023-04-24T08:25:19.518Z,98974.06
2023-04-24T08:27:47.071Z,98973.78
2023-04-24T08:30:18.624Z,98983.34
2023-04-24T08:41:13.861Z,98990.06
2023-04-24T08:58:12.973Z,99021.00
2023-04-24T09:00:43.265Z,99022.78
2023-04-24T09:03:11.590Z,99020.41
2023-04-24T09:05:53.877Z,99024.31
2023-04-24T09:08:36.514Z,99013.91
2023-04-24T09:11:05.638Z,99010.94
2023-04-24T09:13:47.300Z,99019.28
2023-04-24T09:16:39.879Z,99012.06
2023-04-24T09:20:03.631Z,99006.44
2023-04-24T09:22:33.591Z,99022.47
2023-04-24T09:25:04.843Z,99033.13
2023-04-24T09:27:32.408Z,99040.09
2023-04-24T09:30:01.987Z,99043.63
2023-04-24T09:32:29.474Z,99060.22
2023-04-24T09:35:12.643Z,99054.88
2023-04-24T09:37:44.494Z,99049.75
2023-04-24T09:40:16.333Z,99051.47
2023-04-24T09:42:52.679Z,99051.53
2023-04-24T09:45:25.244Z,99053.50
2023-04-24T09:47:56.008Z,99046.31
2023-04-24T09:50:24.116Z,99055.00
2023-04-24T09:52:59.821Z,99064.00
2023-04-24T09:56:57.069Z,99064.16
2023-04-24T09:59:25.713Z,99060.91
2023-04-24T10:01:54.950Z,99070.13
2023-04-24T10:04:25.011Z,99061.94
2023-04-24T10:06:55.257Z,99066.22
2023-04-24T10:09:24.490Z,99071.59
2023-04-24T10:11:53.956Z,99065.50
2023-04-24T10:14:23.466Z,99067.97
2023-04-24T10:21:45.531Z,99091.94
2023-04-24T10:24:14.186Z,99096.25
2023-04-24T10:31:15.568Z,99101.47
2023-04-24T10:33:46.371Z,99100.13
2023-04-24T10:36:17.358Z,99105.38
2023-04-24T10:39:14.587Z,99095.94
2023-04-24T10:41:42.030Z,99091.22
2023-04-24T10:44:11.654Z,99095.38
2023-04-24T10:46:40.475Z,99092.78
2023-04-24T10:49:08.501Z,99101.75
2023-04-24T10:54:48.811Z,99089.63
2023-04-24T10:57:29.964Z,99098.44
2023-04-24T11:00:17.450Z,99096.75
2023-04-24T11:02:48.634Z,99093.50
2023-04-24T11:05:16.496Z,99106.47
2023-04-24T11:08:11.583Z,99102.13
2023-04-24T11:10:44.554Z,99117.56
2023-04-24T11:13:12.884Z,99106.16
2023-04-24T11:15:42.673Z,99118.06
2023-04-24T11:18:15.163Z,99112.63
2023-04-24T11:20:44.290Z,99121.84
2023-04-24T11:23:14.950Z,99126.28
2023-04-24T11:25:44.375Z,99136.44
2023-04-24T11:28:16.277Z,99145.59
2023-04-24T11:30:50.230Z,99140.44
2023-04-24T11:33:28.881Z,99148.50
2023-04-24T11:35:56.561Z,99155.91
2023-04-24T11:38:24.957Z,99148.38
2023-04-24T11:40:55.927Z,99147.75
2023-04-24T11:43:24.728Z,99147.75
2023-04-24T11:45:55.777Z,99145.53
2023-04-24T11:48:23.423Z,99163.38
2023-04-24T11:50:51.694Z,99149.06
2023-04-24T11:53:20.928Z,99147.28
2023-04-24T11:55:47.951Z,99154.00
2023-04-24T11:58:21.564Z,99161.84
2023-04-24T12:00:57.757Z,99166.44
2023-04-24T12:03:24.957Z,99169.41
2023-04-24T12:05:52.312Z,99178.72
2023-04-24T12:08:28.857Z,99186.53
2023-04-24T12:10:55.829Z,99187.19
2023-04-24T12:13:27.644Z,99191.97
2023-04-24T12:15:54.676Z,99187.16
2023-04-24T12:18:23.451Z,99183.25
2023-04-24T12:20:50.971Z,99191.13
2023-04-24T12:23:33.846Z,99179.28
2023-04-24T12:26:02.674Z,99200.44
2023-04-24T12:28:39.376Z,99188.16
2023-04-24T12:31:08.254Z,99191.75
2023-04-24T12:33:36.481Z,99189.66
2023-04-24T12:36:03.841Z,99192.97
2023-04-24T12:38:31.985Z,99180.78
2023-04-24T12:41:07.997Z,99194.59
2023-04-24T12:43:37.772Z,99189.41
2023-04-24T12:46:06.204Z,99190.34
2023-04-24T12:48:33.970Z,99199.88
2023-04-24T12:51:01.643Z,99195.50
2023-04-24T12:53:30.014Z,99186.22
2023-04-24T12:57:14.763Z,99183.41
2023-04-24T12:59:44.736Z,99176.16
2023-04-24T13:02:12.599Z,99181.03
2023-04-24T13:04:39.648Z,99168.16
2023-04-24T13:07:07.259Z,99176.91
2023-04-24T13:09:35.571Z,99169.38
2023-04-24T13:12:02.606Z,99182.81
2023-04-24T13:14:29.715Z,99177.28
2023-04-24T13:16:58.163Z,99180.94
2023-04-24T13:19:27.818Z,99173.88
2023-04-24T13:21:56.539Z,99182.31
2023-04-24T13:24:24.524Z,99182.28
2023-04-24T13:26:51.465Z,99176.03
2023-04-24T13:29:18.539Z,99177.34
2023-04-24T13:31:45.593Z,99174.06
2023-04-24T13:34:14.273Z,99179.75
2023-04-24T13:36:41.216Z,99162.91
2023-04-24T13:39:08.590Z,99157.66
2023-04-24T13:41:35.586Z,99163.66
2023-04-24T13:44:02.771Z,99146.97
2023-04-24T13:46:30.002Z,99163.78
2023-04-24T13:48:57.759Z,99165.81
2023-04-24T13:51:27.107Z,99162.50
2023-04-24T13:53:54.098Z,99161.63
2023-04-24T13:56:21.279Z,99151.69
2023-04-24T13:58:48.115Z,99161.38
2023-04-24T14:01:15.966Z,99160.56
2023-04-24T14:03:43.714Z,99169.22
2023-04-24T14:06:11.049Z,99160.97
2023-04-24T14:08:40.227Z,99165.72
2023-04-24T14:11:07.486Z,99164.56
2023-04-24T14:13:34.532Z,99164.16
2023-04-24T14:16:01.835Z,99168.69
2023-04-24T14:18:28.638Z,99171.28
2023-04-24T14:20:55.887Z,99176.00
2023-04-24T14:23:23.145Z,99177.22
2023-04-24T14:25:51.871Z,99170.88
2023-04-24T14:28:19.340Z,99164.00
2023-04-24T14:30:46.339Z,99156.56
2023-04-24T14:33:13.605Z,99163.50
2023-04-24T14:35:42.243Z,99159.47
2023-04-24T14:38:09.374Z,99160.41
2023-04-24T14:41:02.706Z,99156.72
2023-04-24T14:43:25.600Z,99159.53
2023-04-24T14:45:52.455Z,99158.63
2023-04-24T14:48:19.515Z,99150.66
2023-04-24T14:50:46.852Z,99156.81
2023-04-24T14:53:14.096Z,99157.00
2023-04-24T14:55:41.016Z,99153.75
2023-04-24T14:58:08.960Z,99152.25
2023-04-24T15:00:38.121Z,99161.94
2023-04-24T15:03:05.738Z,99157.38
2023-04-24T15:05:34.177Z,99159.94
2023-04-24T15:08:01.296Z,99162.78
2023-04-24T15:10:28.899Z,99164.16
2023-04-24T15:12:56.094Z,99166.22
2023-04-24T15:15:23.313Z,99152.63
2023-04-24T15:17:51.840Z,99149.19
2023-04-24T15:20:19.379Z,99146.75
2023-04-24T15:22:46.337Z,99155.41
2023-04-24T15:25:15.944Z,99147.25
2023-04-24T15:27:44.021Z,99150.47
2023-04-24T15:30:12.992Z,99153.50
2023-04-24T15:32:40.306Z,99150.63
2023-04-24T15:35:11.376Z,99144.59
2023-04-24T15:37:39.557Z,99161.16
2023-04-24T15:40:08.706Z,99160.91
2023-04-24T15:42:36.414Z,99163.50
2023-04-24T15:45:04.218Z,99171.53
2023-04-24T15:47:32.724Z,99159.13
2023-04-24T15:49:59.698Z,99157.16
2023-04-24T15:52:29.061Z,99165.22
2023-04-24T15:54:57.946Z,99162.41
2023-04-24T15:57:24.850Z,99155.47
2023-04-24T15:59:51.959Z,99159.44
2023-04-24T16:02:19.396Z,99167.69
2023-04-24T16:04:47.363Z,99159.88
2023-04-24T16:07:18.014Z,99160.66
2023-04-24T16:09:46.538Z,99159.50
2023-04-24T16:12:13.507Z,99168.41
2023-04-24T16:14:40.626Z,99171.47
2023-04-24T16:17:07.515Z,99160.78
2023-04-24T16:19:34.328Z,99155.91
2023-04-24T16:22:02.030Z,99168.25
2023-04-24T16:24:29.629Z,99159.88
2023-04-24T16:26:58.472Z,99153.22
2023-04-24T16:29:25.646Z,99160.06
2023-04-24T16:31:54.521Z,99157.50
2023-04-24T16:34:21.446Z,99165.56
2023-04-24T16:36:48.390Z,99169.44
2023-04-24T16:39:15.425Z,99174.94
2023-04-24T16:41:42.374Z,99167.13
2023-04-24T16:44:10.790Z,99168.53
2023-04-24T16:46:39.223Z,99172.97
2023-04-24T16:49:06.494Z,99174.94
2023-04-24T16:51:33.736Z,99174.59
2023-04-24T16:54:00.555Z,99176.34
2023-04-24T16:56:27.537Z,99175.63
2023-04-24T16:58:55.234Z,99186.03
2023-04-24T17:01:24.643Z,99180.59
2023-04-24T17:03:51.653Z,99183.00
2023-04-24T17:06:19.000Z,99178.13
2023-04-24T17:08:46.484Z,99172.22
2023-04-24T17:11:13.870Z,99173.88
2023-04-24T17:13:40.858Z,99176.41
2023-04-24T17:16:07.921Z,99180.31
2023-04-24T17:18:36.269Z,99180.94
2023-04-24T17:21:03.415Z,99180.81
2023-04-24T17:23:31.057Z,99177.31
2023-04-24T17:25:58.264Z,99179.28
2023-04-24T17:28:29.106Z,99183.31
2023-04-24T17:30:57.059Z,99173.84
2023-04-24T17:33:24.265Z,99176.25
2023-04-24T17:35:54.210Z,99180.03
2023-04-24T17:38:21.988Z,99183.28
2023-04-24T17:40:49.848Z,99181.03
2023-04-24T17:43:16.669Z,99188.44
2023-04-24T17:45:44.339Z,99180.31
2023-04-24T17:48:11.549Z,99185.63
2023-04-24T17:50:38.890Z,99188.00
2023-04-24T17:53:10.736Z,99194.28
2023-04-24T17:55:38.921Z,99195.91
2023-04-24T17:58:06.478Z,99192.44
2023-04-24T18:00:34.023Z,99192.69
2023-04-24T18:03:03.085Z,99197.03
2023-04-24T18:05:35.551Z,99199.66
2023-04-24T18:08:03.337Z,99204.03
2023-04-24T18:10:33.625Z,99209.59
2023-04-24T18:13:01.185Z,99209.66
2023-04-24T18:15:28.279Z,99215.56
2023-04-24T18:17:56.221Z,99210.34
2023-04-24T18:20:23.221Z,99213.06
2023-04-24T18:22:50.075Z,99215.81
2023-04-24T18:25:18.438Z,99214.06
2023-04-24T18:27:46.777Z,99223.38
2023-04-24T18:30:14.907Z,99229.13
2023-04-24T18:32:43.250Z,99238.44
2023-04-24T18:35:10.868Z,99224.44
2023-04-24T18:37:37.898Z,99237.97
2023-04-24T18:40:06.103Z,99229.84
2023-04-24T18:42:33.028Z,99218.56
2023-04-24T18:45:01.332Z,99221.38
2023-04-24T18:47:28.576Z,99223.59
2023-04-24T18:49:55.689Z,99219.94
2023-04-24T18:52:24.146Z,99227.38
2023-04-24T18:54:51.450Z,99230.06
2023-04-24T18:57:18.479Z,99234.22
2023-04-24T18:59:45.975Z,99224.78
2023-04-24T19:02:14.293Z,99223.97
2023-04-24T19:04:41.564Z,99236.78
2023-04-24T19:07:08.436Z,99243.75
2023-04-24T19:09:35.693Z,99237.88
2023-04-24T19:12:02.854Z,99251.25
2023-04-24T19:14:30.133Z,99251.97
2023-04-24T19:16:57.323Z,99251.25
2023-04-24T19:19:26.021Z,99251.97
2023-04-24T19:21:53.089Z,99260.97
2023-04-24T19:24:20.334Z,99254.41
2023-04-24T19:26:47.770Z,99258.69
2023-04-24T19:29:14.726Z,99260.88
2023-04-24T19:31:41.860Z,99262.09
2023-04-24T19:34:09.241Z,99260.84
2023-04-24T19:36:37.636Z,99261.44
2023-04-24T19:39:04.542Z,99257.19
2023-04-24T19:41:31.504Z,99260.97
2023-04-24T19:43:59.155Z,99260.41
2023-04-24T19:46:26.758Z,99261.63
2023-04-24T19:48:53.970Z,99267.69
2023-04-24T19:51:21.109Z,99274.00
2023-04-24T19:53:49.470Z,99279.09
2023-04-24T19:56:16.579Z,99271.69
2023-04-24T19:58:43.364Z,99277.50
2023-04-24T20:01:11.460Z,99274.78
2023-04-24T20:04:05.687Z,99270.19
2023-04-24T20:06:34.730Z,99270.63
2023-04-24T20:09:04.440Z,99278.75
2023-04-24T20:11:32.948Z,99281.44
2023-04-24T20:19:59.285Z,99280.41
2023-04-24T20:22:26.316Z,99272.75
2023-04-24T20:24:55.159Z,99276.41
2023-04-24T20:27:21.975Z,99279.34
2023-04-24T20:33:13.803Z,99282.66
2023-04-24T20:36:05.574Z,99274.56
2023-04-24T20:38:52.615Z,99279.97
2023-04-24T20:41:37.392Z,99280.19
2023-04-24T20:46:58.528Z,99276.16
2023-04-24T20:49:26.100Z,99281.16
2023-04-24T20:51:53.004Z,99269.56
2023-04-24T20:54:20.460Z,99272.41
2023-04-24T20:56:53.671Z,99276.16
2023-04-24T20:59:20.661Z,99272.25
2023-04-24T21:01:47.610Z,99273.69
2023-04-24T21:04:14.785Z,99275.66
2023-04-24T21:06:41.739Z,99272.13
2023-04-24T21:09:09.495Z,99270.44
2023-04-24T21:11:36.462Z,99271.88
2023-04-24T21:14:04.907Z,99270.81
2023-04-24T21:16:32.078Z,99264.78
2023-04-24T21:18:58.907Z,99262.31
2023-04-24T21:21:26.600Z,99262.88
2023-04-24T21:23:53.698Z,99259.72
2023-04-24T21:26:21.192Z,99259.50
2023-04-24T21:28:48.355Z,99253.53
2023-04-24T21:31:16.582Z,99249.38
2023-04-24T21:33:43.528Z,99249.94
2023-04-24T21:36:10.540Z,99254.91
2023-04-24T21:38:37.380Z,99249.19
2023-04-24T21:41:04.291Z,99235.00
2023-04-24T21:43:43.389Z,99239.94
2023-04-24T21:46:11.881Z,99238.88
2023-04-24T21:48:40.714Z,99237.34
2023-04-24T21:51:07.649Z,99233.63
2023-04-24T21:53:34.530Z,99233.63
2023-04-24T21:56:01.549Z,99228.44
2023-04-24T21:58:29.017Z,99236.56
2023-04-24T22:00:55.865Z,99224.66
2023-04-24T22:03:22.902Z,99219.03
2023-04-24T22:05:51.586Z,99217.97
2023-04-24T22:08:18.565Z,99206.69
2023-04-24T22:10:45.456Z,99210.31
2023-04-24T22:13:12.827Z,99206.41
2023-04-24T22:15:43.434Z,99204.59
2023-04-24T22:18:10.784Z,99201.88
2023-04-24T22:20:38.162Z,99193.31
2023-04-24T22:23:06.409Z,99208.84
2023-04-24T22:25:33.479Z,99187.75
2023-04-24T22:28:00.289Z,99186.78
2023-04-24T22:30:27.341Z,99194.75
2023-04-24T22:32:54.209Z,99195.50
2023-04-24T22:35:21.450Z,99186.88
2023-04-24T22:37:55.063Z,99190.47
2023-04-24T22:40:25.217Z,99179.38
2023-04-24T22:42:52.619Z,99182.22
2023-04-24T22:45:19.639Z,99182.38
2023-04-24T22:47:46.591Z,99189.66
2023-04-24T22:50:14.353Z,99184.13
2023-04-24T22:52:41.498Z,99176.66
2023-04-24T22:55:10.365Z,99181.66
2023-04-24T22:57:39.415Z,99179.50
2023-04-24T23:00:08.701Z,99178.94
2023-04-24T23:02:36.337Z,99178.38
2023-04-24T23:05:03.548Z,99188.59
2023-04-24T23:07:30.429Z,99186.56
2023-04-24T23:09:58.338Z,99187.47
2023-04-24T23:12:25.666Z,99195.28
2023-04-24T23:14:54.155Z,99191.06
2023-04-24T23:17:21.024Z,99189.78
2023-04-24T23:19:48.014Z,99184.16
2023-04-24T23:22:14.930Z,99192.19
2023-04-24T23:24:42.018Z,99178.00
2023-04-24T23:27:08.943Z,99183.00
2023-04-24T23:29:35.829Z,99175.28
2023-04-24T23:32:04.610Z,99177.53
2023-04-24T23:34:31.771Z,99184.59
2023-04-24T23:36:58.679Z,99168.75
2023-04-24T23:39:25.700Z,99175.19
2023-04-24T23:41:52.577Z,99179.31
2023-04-24T23:44:19.688Z,99182.59
2023-04-24T23:46:46.468Z,99184.72
2023-04-24T23:49:14.840Z,99184.13
2023-04-24T23:51:42.250Z,99174.38
2023-04-24T23:54:09.289Z,99170.38
2023-04-24T23:56:37.148Z,99168.53
2023-04-24T23:59:04.381Z,99178.00
